sensor_id;sensor_type;location;lat;lon;timestamp;pressure;altitude;pressure_sealevel;temperature;humidity
24160;BME280;62385;41.594;23.808;2023-07-30T00:01:32;95286.09;;;19.49;59.62
24160;BME280;62385;41.594;23.808;2023-07-30T00:03:58;95276.56;;;19.47;59.35
24160;BME280;62385;41.594;23.808;2023-07-30T00:06:25;95283.06;;;19.57;59.28
24160;BME280;62385;41.594;23.808;2023-07-30T00:08:50;95284.66;;;19.47;59.66
24160;BME280;62385;41.594;23.808;2023-07-30T00:11:16;95283.16;;;19.21;60.67
24160;BME280;62385;41.594;23.808;2023-07-30T00:13:41;95296.84;;;19.19;60.76
24160;BME280;62385;41.594;23.808;2023-07-30T00:16:07;95288.63;;;19.14;61.03
24160;BME280;62385;41.594;23.808;2023-07-30T00:18:33;95293.00;;;19.27;60.63
24160;BME280;62385;41.594;23.808;2023-07-30T00:20:58;95298.75;;;19.30;59.95
24160;BME280;62385;41.594;23.808;2023-07-30T00:23:24;95280.97;;;19.29;59.68
24160;BME280;62385;41.594;23.808;2023-07-30T00:25:49;95277.97;;;19.08;60.38
24160;BME280;62385;41.594;23.808;2023-07-30T00:28:14;95272.72;;;19.43;59.52
24160;BME280;62385;41.594;23.808;2023-07-30T00:30:40;95283.66;;;19.29;59.84
24160;BME280;62385;41.594;23.808;2023-07-30T00:33:06;95293.00;;;19.27;60.08
24160;BME280;62385;41.594;23.808;2023-07-30T00:35:32;95279.50;;;19.15;59.94
24160;BME280;62385;41.594;23.808;2023-07-30T00:37:58;95288.16;;;19.17;60.38
24160;BME280;62385;41.594;23.808;2023-07-30T00:40:24;95288.09;;;19.24;59.79
24160;BME280;62385;41.594;23.808;2023-07-30T00:42:50;95289.88;;;19.00;60.50
24160;BME280;62385;41.594;23.808;2023-07-30T00:45:16;95289.63;;;19.02;60.64
24160;BME280;62385;41.594;23.808;2023-07-30T00:47:43;95283.25;;;19.14;60.41
24160;BME280;62385;41.594;23.808;2023-07-30T00:50:11;95286.56;;;18.98;61.27
24160;BME280;62385;41.594;23.808;2023-07-30T00:52:38;95289.72;;;18.95;61.55
24160;BME280;62385;41.594;23.808;2023-07-30T00:55:06;95284.06;;;18.85;61.73
24160;BME280;62385;41.594;23.808;2023-07-30T00:57:35;95288.06;;;18.94;61.15
24160;BME280;62385;41.594;23.808;2023-07-30T01:00:01;95289.88;;;18.82;61.79
24160;BME280;62385;41.594;23.808;2023-07-30T01:02:31;95274.97;;;18.68;61.75
24160;BME280;62385;41.594;23.808;2023-07-30T01:04:57;95284.81;;;18.56;62.27
24160;BME280;62385;41.594;23.808;2023-07-30T01:07:23;95286.03;;;18.60;62.85
24160;BME280;62385;41.594;23.808;2023-07-30T01:09:49;95267.47;;;18.52;62.60
24160;BME280;62385;41.594;23.808;2023-07-30T01:12:15;95271.22;;;18.51;62.63
24160;BME280;62385;41.594;23.808;2023-07-30T01:14:41;95284.28;;;18.47;62.88
24160;BME280;62385;41.594;23.808;2023-07-30T01:17:09;95275.84;;;18.43;63.12
24160;BME280;62385;41.594;23.808;2023-07-30T01:19:34;95268.44;;;18.39;62.92
24160;BME280;62385;41.594;23.808;2023-07-30T01:22:02;95273.81;;;18.39;63.05
24160;BME280;62385;41.594;23.808;2023-07-30T01:24:27;95281.31;;;18.37;63.07
24160;BME280;62385;41.594;23.808;2023-07-30T01:27:01;95279.28;;;18.32;63.28
24160;BME280;62385;41.594;23.808;2023-07-30T01:29:42;95282.94;;;18.38;62.97
24160;BME280;62385;41.594;23.808;2023-07-30T01:32:13;95265.09;;;18.25;63.21
24160;BME280;62385;41.594;23.808;2023-07-30T01:34:40;95280.31;;;18.31;63.23
24160;BME280;62385;41.594;23.808;2023-07-30T01:37:09;95275.41;;;18.28;63.56
24160;BME280;62385;41.594;23.808;2023-07-30T01:39:36;95288.84;;;18.28;63.62
24160;BME280;62385;41.594;23.808;2023-07-30T01:42:04;95271.97;;;18.21;63.70
24160;BME280;62385;41.594;23.808;2023-07-30T01:44:29;95276.75;;;18.37;63.25
24160;BME280;62385;41.594;23.808;2023-07-30T01:46:55;95278.41;;;18.38;63.19
24160;BME280;62385;41.594;23.808;2023-07-30T01:49:20;95273.75;;;18.27;63.65
24160;BME280;62385;41.594;23.808;2023-07-30T01:51:46;95281.97;;;18.51;62.91
24160;BME280;62385;41.594;23.808;2023-07-30T01:54:12;95274.22;;;18.42;63.30
24160;BME280;62385;41.594;23.808;2023-07-30T01:56:37;95276.97;;;18.36;63.80
24160;BME280;62385;41.594;23.808;2023-07-30T01:59:03;95274.94;;;18.31;64.65
24160;BME280;62385;41.594;23.808;2023-07-30T02:01:28;95276.44;;;18.09;64.55
24160;BME280;62385;41.594;23.808;2023-07-30T02:03:54;95275.69;;;18.20;64.60
24160;BME280;62385;41.594;23.808;2023-07-30T02:06:20;95270.78;;;18.17;64.26
24160;BME280;62385;41.594;23.808;2023-07-30T02:08:46;95286.56;;;18.07;65.03
24160;BME280;62385;41.594;23.808;2023-07-30T02:11:11;95282.69;;;18.03;65.38
24160;BME280;62385;41.594;23.808;2023-07-30T02:13:37;95287.09;;;18.16;64.92
24160;BME280;62385;41.594;23.808;2023-07-30T02:16:03;95283.34;;;17.98;65.31
24160;BME280;62385;41.594;23.808;2023-07-30T02:18:28;95297.56;;;18.24;64.56
24160;BME280;62385;41.594;23.808;2023-07-30T02:20:54;95283.47;;;18.28;64.07
24160;BME280;62385;41.594;23.808;2023-07-30T02:23:20;95298.47;;;18.18;64.35
24160;BME280;62385;41.594;23.808;2023-07-30T02:25:46;95288.72;;;17.98;65.25
24160;BME280;62385;41.594;23.808;2023-07-30T02:28:11;95298.91;;;17.90;65.25
24160;BME280;62385;41.594;23.808;2023-07-30T02:30:37;95300.69;;;17.78;65.15
24160;BME280;62385;41.594;23.808;2023-07-30T02:33:02;95303.25;;;17.91;65.24
24160;BME280;62385;41.594;23.808;2023-07-30T02:35:28;95303.97;;;18.05;64.65
24160;BME280;62385;41.594;23.808;2023-07-30T02:37:53;95302.72;;;17.82;64.96
24160;BME280;62385;41.594;23.808;2023-07-30T02:40:19;95296.31;;;17.83;65.21
24160;BME280;62385;41.594;23.808;2023-07-30T02:42:44;95292.72;;;17.89;65.11
24160;BME280;62385;41.594;23.808;2023-07-30T02:45:10;95289.06;;;17.84;65.44
24160;BME280;62385;41.594;23.808;2023-07-30T02:47:35;95302.38;;;17.97;64.92
24160;BME280;62385;41.594;23.808;2023-07-30T02:50:03;95303.13;;;18.04;64.85
24160;BME280;62385;41.594;23.808;2023-07-30T02:52:29;95299.84;;;18.02;64.66
24160;BME280;62385;41.594;23.808;2023-07-30T02:54:54;95299.78;;;18.09;64.68
24160;BME280;62385;41.594;23.808;2023-07-30T02:57:20;95308.44;;;18.11;64.06
24160;BME280;62385;41.594;23.808;2023-07-30T02:59:46;95303.31;;;18.09;64.37
24160;BME280;62385;41.594;23.808;2023-07-30T03:02:12;95308.06;;;18.07;64.26
24160;BME280;62385;41.594;23.808;2023-07-30T03:04:56;95314.44;;;17.88;64.86
24160;BME280;62385;41.594;23.808;2023-07-30T03:07:22;95308.16;;;17.76;65.42
24160;BME280;62385;41.594;23.808;2023-07-30T03:09:48;95312.22;;;17.53;66.85
24160;BME280;62385;41.594;23.808;2023-07-30T03:12:14;95310.75;;;17.58;65.98
24160;BME280;62385;41.594;23.808;2023-07-30T03:14:40;95326.50;;;17.79;65.60
24160;BME280;62385;41.594;23.808;2023-07-30T03:17:05;95325.34;;;17.68;65.91
24160;BME280;62385;41.594;23.808;2023-07-30T03:19:31;95320.69;;;17.50;66.62
24160;BME280;62385;41.594;23.808;2023-07-30T03:21:57;95326.50;;;17.47;66.46
24160;BME280;62385;41.594;23.808;2023-07-30T03:24:23;95329.94;;;17.30;66.69
24160;BME280;62385;41.594;23.808;2023-07-30T03:26:49;95331.69;;;17.42;66.74
24160;BME280;62385;41.594;23.808;2023-07-30T03:29:15;95328.47;;;17.27;67.23
24160;BME280;62385;41.594;23.808;2023-07-30T03:31:41;95328.91;;;17.31;66.81
24160;BME280;62385;41.594;23.808;2023-07-30T03:34:06;95336.81;;;17.50;66.81
24160;BME280;62385;41.594;23.808;2023-07-30T03:36:32;95330.16;;;17.53;66.84
24160;BME280;62385;41.594;23.808;2023-07-30T03:38:57;95321.34;;;17.46;66.56
24160;BME280;62385;41.594;23.808;2023-07-30T03:41:23;95333.69;;;17.53;66.17
24160;BME280;62385;41.594;23.808;2023-07-30T03:43:49;95317.16;;;17.25;66.83
24160;BME280;62385;41.594;23.808;2023-07-30T03:46:14;95323.69;;;17.36;66.81
24160;BME280;62385;41.594;23.808;2023-07-30T03:48:40;95332.69;;;17.48;66.87
24160;BME280;62385;41.594;23.808;2023-07-30T03:51:06;95334.31;;;17.49;66.72
24160;BME280;62385;41.594;23.808;2023-07-30T03:53:33;95337.78;;;17.63;66.38
24160;BME280;62385;41.594;23.808;2023-07-30T03:55:59;95336.38;;;17.53;66.58
24160;BME280;62385;41.594;23.808;2023-07-30T03:58:25;95333.75;;;17.40;67.26
24160;BME280;62385;41.594;23.808;2023-07-30T04:00:52;95331.88;;;17.47;66.75
24160;BME280;62385;41.594;23.808;2023-07-30T04:03:18;95331.13;;;17.72;66.16
24160;BME280;62385;41.594;23.808;2023-07-30T04:05:44;95335.75;;;17.58;66.67
24160;BME280;62385;41.594;23.808;2023-07-30T04:08:10;95326.59;;;17.66;66.25
24160;BME280;62385;41.594;23.808;2023-07-30T04:10:36;95338.06;;;17.79;66.03
24160;BME280;62385;41.594;23.808;2023-07-30T04:13:02;95336.75;;;18.13;65.06
24160;BME280;62385;41.594;23.808;2023-07-30T04:15:27;95341.53;;;18.54;64.37
24160;BME280;62385;41.594;23.808;2023-07-30T04:17:53;95338.19;;;18.59;65.19
24160;BME280;62385;41.594;23.808;2023-07-30T04:20:19;95337.72;;;18.62;64.64
24160;BME280;62385;41.594;23.808;2023-07-30T04:22:44;95327.69;;;18.69;64.44
24160;BME280;62385;41.594;23.808;2023-07-30T04:25:10;95336.69;;;18.63;64.92
24160;BME280;62385;41.594;23.808;2023-07-30T04:27:38;95344.13;;;18.97;63.28
24160;BME280;62385;41.594;23.808;2023-07-30T04:30:05;95338.88;;;19.02;63.78
24160;BME280;62385;41.594;23.808;2023-07-30T04:32:32;95354.28;;;18.95;64.53
24160;BME280;62385;41.594;23.808;2023-07-30T04:34:57;95348.84;;;18.83;65.08
24160;BME280;62385;41.594;23.808;2023-07-30T04:37:23;95345.56;;;18.81;65.46
24160;BME280;62385;41.594;23.808;2023-07-30T04:39:49;95354.88;;;18.97;65.19
24160;BME280;62385;41.594;23.808;2023-07-30T04:42:15;95350.41;;;18.91;64.75
24160;BME280;62385;41.594;23.808;2023-07-30T04:44:42;95356.22;;;19.06;64.65
24160;BME280;62385;41.594;23.808;2023-07-30T04:47:11;95348.00;;;19.01;64.57
24160;BME280;62385;41.594;23.808;2023-07-30T04:49:37;95347.72;;;18.91;64.87
24160;BME280;62385;41.594;23.808;2023-07-30T04:52:06;95346.16;;;19.31;64.29
24160;BME280;62385;41.594;23.808;2023-07-30T04:54:33;95357.34;;;18.99;65.42
24160;BME280;62385;41.594;23.808;2023-07-30T04:57:02;95341.63;;;19.14;65.08
24160;BME280;62385;41.594;23.808;2023-07-30T04:59:29;95358.28;;;19.22;64.94
24160;BME280;62385;41.594;23.808;2023-07-30T05:01:54;95344.81;;;19.22;64.66
24160;BME280;62385;41.594;23.808;2023-07-30T05:04:21;95356.34;;;19.29;64.51
24160;BME280;62385;41.594;23.808;2023-07-30T05:06:47;95353.72;;;19.23;64.13
24160;BME280;62385;41.594;23.808;2023-07-30T05:09:12;95366.50;;;19.46;63.54
24160;BME280;62385;41.594;23.808;2023-07-30T05:11:39;95364.75;;;19.51;62.84
24160;BME280;62385;41.594;23.808;2023-07-30T05:14:04;95360.91;;;19.59;63.00
24160;BME280;62385;41.594;23.808;2023-07-30T05:16:30;95356.50;;;19.76;62.46
24160;BME280;62385;41.594;23.808;2023-07-30T05:18:57;95368.03;;;19.83;63.35
24160;BME280;62385;41.594;23.808;2023-07-30T05:21:22;95367.41;;;19.81;63.02
24160;BME280;62385;41.594;23.808;2023-07-30T05:23:48;95366.03;;;19.90;62.79
24160;BME280;62385;41.594;23.808;2023-07-30T05:26:13;95359.97;;;19.95;62.37
24160;BME280;62385;41.594;23.808;2023-07-30T05:28:39;95351.53;;;19.91;62.66
24160;BME280;62385;41.594;23.808;2023-07-30T05:31:04;95365.50;;;20.11;62.46
24160;BME280;62385;41.594;23.808;2023-07-30T05:33:31;95352.16;;;20.16;62.23
24160;BME280;62385;41.594;23.808;2023-07-30T05:35:57;95337.38;;;20.19;62.06
24160;BME280;62385;41.594;23.808;2023-07-30T05:38:22;95351.47;;;20.33;62.06
24160;BME280;62385;41.594;23.808;2023-07-30T05:40:48;95363.03;;;20.10;62.90
24160;BME280;62385;41.594;23.808;2023-07-30T05:43:13;95363.44;;;20.37;61.97
24160;BME280;62385;41.594;23.808;2023-07-30T05:45:39;95364.59;;;20.64;61.61
24160;BME280;62385;41.594;23.808;2023-07-30T05:48:05;95344.78;;;20.70;61.23
24160;BME280;62385;41.594;23.808;2023-07-30T05:50:30;95365.88;;;20.73;61.22
24160;BME280;62385;41.594;23.808;2023-07-30T05:52:56;95343.31;;;20.79;60.84
24160;BME280;62385;41.594;23.808;2023-07-30T05:55:22;95360.81;;;20.77;61.22
24160;BME280;62385;41.594;23.808;2023-07-30T05:57:48;95359.44;;;20.74;61.26
24160;BME280;62385;41.594;23.808;2023-07-30T06:00:13;95350.72;;;20.72;60.92
24160;BME280;62385;41.594;23.808;2023-07-30T06:02:39;95353.13;;;21.08;59.73
24160;BME280;62385;41.594;23.808;2023-07-30T06:05:04;95345.97;;;21.14;59.64
24160;BME280;62385;41.594;23.808;2023-07-30T06:07:30;95332.00;;;21.17;58.93
24160;BME280;62385;41.594;23.808;2023-07-30T06:09:55;95338.56;;;21.21;59.23
24160;BME280;62385;41.594;23.808;2023-07-30T06:12:22;95322.84;;;21.46;57.09
24160;BME280;62385;41.594;23.808;2023-07-30T06:14:48;95316.94;;;21.49;57.15
24160;BME280;62385;41.594;23.808;2023-07-30T06:17:13;95333.00;;;21.56;57.75
24160;BME280;62385;41.594;23.808;2023-07-30T06:19:39;95340.31;;;21.72;55.83
24160;BME280;62385;41.594;23.808;2023-07-30T06:22:05;95327.19;;;21.92;55.10
24160;BME280;62385;41.594;23.808;2023-07-30T06:24:30;95321.78;;;21.92;55.38
24160;BME280;62385;41.594;23.808;2023-07-30T06:27:14;95337.72;;;21.77;55.79
24160;BME280;62385;41.594;23.808;2023-07-30T06:29:40;95321.22;;;22.07;54.75
24160;BME280;62385;41.594;23.808;2023-07-30T06:32:05;95318.75;;;22.22;55.07
24160;BME280;62385;41.594;23.808;2023-07-30T06:34:51;95331.69;;;22.20;55.85
24160;BME280;62385;41.594;23.808;2023-07-30T06:37:17;95337.03;;;22.15;54.60
24160;BME280;62385;41.594;23.808;2023-07-30T06:39:42;95331.53;;;22.27;54.58
24160;BME280;62385;41.594;23.808;2023-07-30T06:42:08;95328.03;;;22.65;53.99
24160;BME280;62385;41.594;23.808;2023-07-30T06:44:34;95322.19;;;22.18;54.66
24160;BME280;62385;41.594;23.808;2023-07-30T06:46:59;95312.84;;;22.25;55.18
24160;BME280;62385;41.594;23.808;2023-07-30T06:49:25;95312.13;;;22.68;54.43
24160;BME280;62385;41.594;23.808;2023-07-30T06:51:51;95312.06;;;22.63;54.36
24160;BME280;62385;41.594;23.808;2023-07-30T06:54:16;95317.56;;;22.51;54.16
24160;BME280;62385;41.594;23.808;2023-07-30T06:56:42;95310.00;;;22.70;54.06
24160;BME280;62385;41.594;23.808;2023-07-30T06:59:08;95308.75;;;22.39;54.62
24160;BME280;62385;41.594;23.808;2023-07-30T07:01:33;95308.75;;;22.78;53.87
24160;BME280;62385;41.594;23.808;2023-07-30T07:03:59;95297.84;;;23.16;51.93
24160;BME280;62385;41.594;23.808;2023-07-30T07:06:24;95290.84;;;22.93;52.90
24160;BME280;62385;41.594;23.808;2023-07-30T07:08:50;95287.97;;;22.83;52.82
24160;BME280;62385;41.594;23.808;2023-07-30T07:11:16;95296.41;;;22.87;52.40
24160;BME280;62385;41.594;23.808;2023-07-30T07:13:41;95290.16;;;23.30;51.74
24160;BME280;62385;41.594;23.808;2023-07-30T07:16:07;95276.16;;;23.38;52.12
24160;BME280;62385;41.594;23.808;2023-07-30T07:18:33;95274.50;;;23.37;50.57
24160;BME280;62385;41.594;23.808;2023-07-30T07:20:58;95275.97;;;23.71;51.70
24160;BME280;62385;41.594;23.808;2023-07-30T07:23:24;95261.69;;;23.81;50.44
24160;BME280;62385;41.594;23.808;2023-07-30T07:25:51;95275.72;;;23.73;50.55
24160;BME280;62385;41.594;23.808;2023-07-30T07:28:17;95277.84;;;23.71;50.43
24160;BME280;62385;41.594;23.808;2023-07-30T07:30:44;95268.59;;;23.99;49.60
24160;BME280;62385;41.594;23.808;2023-07-30T07:33:10;95282.63;;;23.90;49.98
24160;BME280;62385;41.594;23.808;2023-07-30T07:35:41;95262.59;;;23.91;49.78
24160;BME280;62385;41.594;23.808;2023-07-30T07:38:06;95268.81;;;23.92;48.57
24160;BME280;62385;41.594;23.808;2023-07-30T07:40:38;95266.81;;;24.14;48.48
24160;BME280;62385;41.594;23.808;2023-07-30T07:43:08;95265.69;;;24.05;48.12
24160;BME280;62385;41.594;23.808;2023-07-30T07:45:34;95262.59;;;23.91;47.80
24160;BME280;62385;41.594;23.808;2023-07-30T07:48:00;95264.53;;;24.33;47.35
24160;BME280;62385;41.594;23.808;2023-07-30T07:50:25;95256.59;;;24.63;46.79
24160;BME280;62385;41.594;23.808;2023-07-30T07:52:52;95262.06;;;24.78;46.22
24160;BME280;62385;41.594;23.808;2023-07-30T07:55:18;95250.38;;;24.68;46.55
24160;BME280;62385;41.594;23.808;2023-07-30T07:57:44;95267.13;;;24.55;46.17
24160;BME280;62385;41.594;23.808;2023-07-30T08:00:09;95250.88;;;24.65;47.01
24160;BME280;62385;41.594;23.808;2023-07-30T08:02:40;95237.75;;;24.99;46.71
24160;BME280;62385;41.594;23.808;2023-07-30T08:05:06;95232.34;;;25.14;45.71
24160;BME280;62385;41.594;23.808;2023-07-30T08:07:32;95244.31;;;25.13;47.20
24160;BME280;62385;41.594;23.808;2023-07-30T08:09:58;95246.00;;;25.34;46.38
24160;BME280;62385;41.594;23.808;2023-07-30T08:12:24;95234.88;;;25.41;46.18
24160;BME280;62385;41.594;23.808;2023-07-30T08:14:51;95245.41;;;25.17;46.54
24160;BME280;62385;41.594;23.808;2023-07-30T08:17:17;95225.34;;;25.43;45.74
24160;BME280;62385;41.594;23.808;2023-07-30T08:19:42;95234.91;;;25.56;45.07
24160;BME280;62385;41.594;23.808;2023-07-30T08:22:08;95234.94;;;25.71;44.51
24160;BME280;62385;41.594;23.808;2023-07-30T08:24:34;95229.78;;;25.75;44.26
24160;BME280;62385;41.594;23.808;2023-07-30T08:26:59;95220.78;;;25.54;45.46
24160;BME280;62385;41.594;23.808;2023-07-30T08:29:26;95225.69;;;25.92;44.13
24160;BME280;62385;41.594;23.808;2023-07-30T08:31:51;95204.22;;;25.76;43.98
24160;BME280;62385;41.594;23.808;2023-07-30T08:34:37;95214.25;;;26.00;44.15
24160;BME280;62385;41.594;23.808;2023-07-30T08:37:02;95200.66;;;26.21;43.57
24160;BME280;62385;41.594;23.808;2023-07-30T08:39:28;95195.75;;;26.12;42.77
24160;BME280;62385;41.594;23.808;2023-07-30T08:41:53;95187.56;;;26.33;42.85
24160;BME280;62385;41.594;23.808;2023-07-30T08:44:20;95185.13;;;26.11;42.77
24160;BME280;62385;41.594;23.808;2023-07-30T08:46:46;95183.69;;;26.49;42.77
24160;BME280;62385;41.594;23.808;2023-07-30T08:49:12;95184.94;;;26.77;42.67
24160;BME280;62385;41.594;23.808;2023-07-30T08:51:39;95181.41;;;26.86;42.35
24160;BME280;62385;41.594;23.808;2023-07-30T08:54:09;95182.16;;;26.92;42.93
24160;BME280;62385;41.594;23.808;2023-07-30T08:56:35;95178.66;;;26.91;40.71
24160;BME280;62385;41.594;23.808;2023-07-30T08:59:02;95168.53;;;26.97;43.37
24160;BME280;62385;41.594;23.808;2023-07-30T09:01:30;95173.09;;;27.06;41.66
24160;BME280;62385;41.594;23.808;2023-07-30T09:03:59;95161.16;;;26.97;41.11
24160;BME280;62385;41.594;23.808;2023-07-30T09:06:27;95145.00;;;27.16;40.81
24160;BME280;62385;41.594;23.808;2023-07-30T09:08:53;95155.13;;;27.05;40.75
24160;BME280;62385;41.594;23.808;2023-07-30T09:11:19;95138.84;;;27.34;41.75
24160;BME280;62385;41.594;23.808;2023-07-30T09:13:46;95140.22;;;27.37;40.80
24160;BME280;62385;41.594;23.808;2023-07-30T09:16:13;95147.59;;;27.70;40.40
24160;BME280;62385;41.594;23.808;2023-07-30T09:18:44;95134.13;;;27.79;41.14
24160;BME280;62385;41.594;23.808;2023-07-30T09:21:13;95130.81;;;27.87;39.15
24160;BME280;62385;41.594;23.808;2023-07-30T09:23:43;95138.09;;;27.63;40.30
24160;BME280;62385;41.594;23.808;2023-07-30T09:26:09;95134.59;;;27.62;41.16
24160;BME280;62385;41.594;23.808;2023-07-30T09:28:35;95131.56;;;28.21;39.58
24160;BME280;62385;41.594;23.808;2023-07-30T09:31:02;95131.50;;;28.26;39.51
24160;BME280;62385;41.594;23.808;2023-07-30T09:33:29;95116.41;;;28.10;38.54
24160;BME280;62385;41.594;23.808;2023-07-30T09:35:54;95120.53;;;28.31;39.48
24160;BME280;62385;41.594;23.808;2023-07-30T09:38:20;95114.13;;;28.41;38.75
24160;BME280;62385;41.594;23.808;2023-07-30T09:40:46;95109.22;;;28.19;38.13
24160;BME280;62385;41.594;23.808;2023-07-30T09:43:15;95104.72;;;28.52;39.22
24160;BME280;62385;41.594;23.808;2023-07-30T09:45:44;95106.34;;;28.77;38.39
24160;BME280;62385;41.594;23.808;2023-07-30T09:48:13;95100.94;;;28.72;37.23
24160;BME280;62385;41.594;23.808;2023-07-30T09:50:41;95104.44;;;28.77;34.22
24160;BME280;62385;41.594;23.808;2023-07-30T09:53:08;95099.91;;;29.05;37.68
24160;BME280;62385;41.594;23.808;2023-07-30T09:55:35;95092.59;;;29.38;37.96
24160;BME280;62385;41.594;23.808;2023-07-30T09:58:01;95085.50;;;29.18;37.82
24160;BME280;62385;41.594;23.808;2023-07-30T10:00:29;95093.34;;;29.06;37.62
24160;BME280;62385;41.594;23.808;2023-07-30T10:02:55;95097.47;;;29.04;36.34
24160;BME280;62385;41.594;23.808;2023-07-30T10:05:24;95088.16;;;29.05;34.79
24160;BME280;62385;41.594;23.808;2023-07-30T10:07:57;95079.47;;;29.40;36.38
24160;BME280;62385;41.594;23.808;2023-07-30T10:10:25;95085.84;;;29.82;36.56
24160;BME280;62385;41.594;23.808;2023-07-30T10:12:55;95075.66;;;29.55;34.12
24160;BME280;62385;41.594;23.808;2023-07-30T10:15:23;95066.88;;;29.39;36.38
24160;BME280;62385;41.594;23.808;2023-07-30T10:17:51;95059.75;;;29.89;34.85
24160;BME280;62385;41.594;23.808;2023-07-30T10:20:25;95067.13;;;29.89;35.35
24160;BME280;62385;41.594;23.808;2023-07-30T10:22:53;95064.94;;;30.18;34.21
24160;BME280;62385;41.594;23.808;2023-07-30T10:25:21;95055.28;;;30.07;34.43
24160;BME280;62385;41.594;23.808;2023-07-30T10:27:49;95052.69;;;29.83;33.73
24160;BME280;62385;41.594;23.808;2023-07-30T10:30:16;95053.81;;;29.82;33.45
24160;BME280;62385;41.594;23.808;2023-07-30T10:38:20;95043.31;;;30.16;32.77
24160;BME280;62385;41.594;23.808;2023-07-30T10:41:13;95046.16;;;30.11;32.86
24160;BME280;62385;41.594;23.808;2023-07-30T10:43:45;95030.16;;;30.46;32.31
24160;BME280;62385;41.594;23.808;2023-07-30T10:46:12;95035.06;;;30.71;32.29
24160;BME280;62385;41.594;23.808;2023-07-30T10:48:43;95034.91;;;30.27;34.10
24160;BME280;62385;41.594;23.808;2023-07-30T10:51:14;95028.00;;;29.88;32.70
24160;BME280;62385;41.594;23.808;2023-07-30T10:53:48;95045.34;;;30.11;32.33
24160;BME280;62385;41.594;23.808;2023-07-30T10:56:17;95035.59;;;29.91;34.14
24160;BME280;62385;41.594;23.808;2023-07-30T10:58:49;95028.59;;;29.85;34.05
24160;BME280;62385;41.594;23.808;2023-07-30T11:01:14;95031.06;;;30.00;35.00
24160;BME280;62385;41.594;23.808;2023-07-30T11:03:40;95027.50;;;30.13;35.47
24160;BME280;62385;41.594;23.808;2023-07-30T11:06:05;95028.69;;;29.80;34.91
24160;BME280;62385;41.594;23.808;2023-07-30T11:08:35;95031.56;;;30.02;36.64
24160;BME280;62385;41.594;23.808;2023-07-30T11:11:02;95020.28;;;30.45;34.54
24160;BME280;62385;41.594;23.808;2023-07-30T11:13:27;95016.31;;;30.23;35.09
24160;BME280;62385;41.594;23.808;2023-07-30T11:15:53;95019.47;;;30.03;34.60
24160;BME280;62385;41.594;23.808;2023-07-30T11:18:19;95018.66;;;30.16;34.40
24160;BME280;62385;41.594;23.808;2023-07-30T11:20:45;95021.94;;;30.18;33.36
24160;BME280;62385;41.594;23.808;2023-07-30T11:23:21;95006.31;;;30.05;32.31
24160;BME280;62385;41.594;23.808;2023-07-30T11:25:51;95007.06;;;29.78;32.04
24160;BME280;62385;41.594;23.808;2023-07-30T11:28:35;95004.28;;;29.97;30.63
24160;BME280;62385;41.594;23.808;2023-07-30T11:31:05;94997.25;;;30.46;29.56
24160;BME280;62385;41.594;23.808;2023-07-30T11:33:31;95002.72;;;31.40;27.25
24160;BME280;62385;41.594;23.808;2023-07-30T11:35:57;94995.63;;;31.17;28.97
24160;BME280;62385;41.594;23.808;2023-07-30T11:38:26;94997.59;;;30.80;30.71
24160;BME280;62385;41.594;23.808;2023-07-30T11:40:53;94992.50;;;31.32;30.86
24160;BME280;62385;41.594;23.808;2023-07-30T11:43:21;94985.25;;;31.80;29.14
24160;BME280;62385;41.594;23.808;2023-07-30T11:45:47;94988.13;;;31.53;30.72
24160;BME280;62385;41.594;23.808;2023-07-30T11:48:13;94983.28;;;31.50;31.36
24160;BME280;62385;41.594;23.808;2023-07-30T11:53:13;94970.94;;;31.39;30.37
24160;BME280;62385;41.594;23.808;2023-07-30T11:55:39;94968.31;;;31.34;31.22
24160;BME280;62385;41.594;23.808;2023-07-30T11:58:06;94964.66;;;31.16;31.71
24160;BME280;62385;41.594;23.808;2023-07-30T12:00:32;94965.19;;;31.27;30.85
24160;BME280;62385;41.594;23.808;2023-07-30T12:03:09;94965.13;;;31.40;31.96
24160;BME280;62385;41.594;23.808;2023-07-30T12:05:36;94956.31;;;31.83;31.79
24160;BME280;62385;41.594;23.808;2023-07-30T12:08:13;94951.03;;;31.95;31.49
24160;BME280;62385;41.594;23.808;2023-07-30T12:10:43;94944.72;;;31.94;30.30
24160;BME280;62385;41.594;23.808;2023-07-30T12:13:16;94943.19;;;32.11;31.62
24160;BME280;62385;41.594;23.808;2023-07-30T12:15:53;94942.75;;;32.26;30.89
24160;BME280;62385;41.594;23.808;2023-07-30T12:18:19;94936.22;;;32.04;30.81
24160;BME280;62385;41.594;23.808;2023-07-30T12:20:46;94945.22;;;32.53;29.61
24160;BME280;62385;41.594;23.808;2023-07-30T12:23:12;94941.69;;;32.70;29.99
24160;BME280;62385;41.594;23.808;2023-07-30T12:25:37;94936.81;;;32.58;31.34
24160;BME280;62385;41.594;23.808;2023-07-30T12:28:03;94931.66;;;32.82;29.99
24160;BME280;62385;41.594;23.808;2023-07-30T12:30:29;94932.13;;;33.10;29.30
24160;BME280;62385;41.594;23.808;2023-07-30T12:32:56;94926.97;;;33.00;29.66
24160;BME280;62385;41.594;23.808;2023-07-30T12:35:21;94934.22;;;33.13;28.57
24160;BME280;62385;41.594;23.808;2023-07-30T12:37:47;94922.44;;;32.95;29.65
24160;BME280;62385;41.594;23.808;2023-07-30T12:40:13;94921.78;;;32.90;30.58
24160;BME280;62385;41.594;23.808;2023-07-30T12:42:38;94906.25;;;32.42;31.42
24160;BME280;62385;41.594;23.808;2023-07-30T12:45:04;94916.25;;;31.82;32.70
24160;BME280;62385;41.594;23.808;2023-07-30T12:47:30;94928.50;;;31.67;32.52
24160;BME280;62385;41.594;23.808;2023-07-30T12:49:55;94915.66;;;31.93;31.44
24160;BME280;62385;41.594;23.808;2023-07-30T12:52:21;94916.41;;;32.25;30.80
24160;BME280;62385;41.594;23.808;2023-07-30T12:54:46;94897.66;;;32.53;31.06
24160;BME280;62385;41.594;23.808;2023-07-30T12:57:12;94891.41;;;32.69;30.68